createdAt,value
2022-08-05T00:00:22.592Z,20.800000
2022-08-05T00:06:02.682Z,20.800000
2022-08-05T00:10:22.707Z,20.709091
2022-08-05T00:15:57.546Z,20.700000
2022-08-05T00:20:29.051Z,20.700000
2022-08-05T00:25:22.670Z,20.700000
2022-08-05T00:30:29.033Z,20.700000
2022-08-05T00:35:24.717Z,20.790000
2022-08-05T00:40:29.299Z,20.800000
2022-08-05T00:45:24.991Z,20.800000
2022-08-05T00:50:22.482Z,20.800000
2022-08-05T00:55:42.117Z,20.800000
2022-08-05T01:00:28.470Z,20.800000
2022-08-05T01:05:19.090Z,20.737500
2022-08-05T01:10:25.757Z,20.700000
2022-08-05T01:15:35.605Z,20.700000
2022-08-05T01:20:22.683Z,20.700000
2022-08-05T01:25:19.554Z,20.700000
2022-08-05T01:30:35.266Z,20.700000
2022-08-05T01:35:51.294Z,20.700000
2022-08-05T01:40:29.032Z,20.763636
2022-08-05T01:45:22.793Z,20.800000
2022-08-05T01:50:28.803Z,20.800000
2022-08-05T01:55:26.327Z,20.745455
2022-08-05T02:00:30.395Z,20.700000
2022-08-05T02:05:23.553Z,20.733333
2022-08-05T02:10:28.487Z,20.800000
2022-08-05T02:15:22.859Z,20.770000
2022-08-05T02:20:30.201Z,20.700000
2022-08-05T02:25:22.750Z,20.700000
2022-08-05T02:30:24.567Z,20.700000
2022-08-05T02:35:28.090Z,20.700000
2022-08-05T02:40:22.939Z,20.600000
2022-08-05T02:45:24.018Z,20.600000
2022-08-05T02:50:24.918Z,20.550000
2022-08-05T02:55:54.093Z,20.500000
2022-08-05T03:00:19.050Z,20.392308
2022-08-05T03:06:53.880Z,20.300000
2022-08-05T03:06:56.393Z,20.300000
2022-08-05T03:10:25.304Z,20.233333
2022-08-05T03:15:23.363Z,20.200000
2022-08-05T03:20:19.784Z,20.200000
2022-08-05T03:26:03.465Z,20.200000
2022-08-05T03:30:30.275Z,20.300000
2022-08-05T03:35:22.981Z,20.350000
2022-08-05T03:40:31.341Z,20.444444
2022-08-05T03:45:23.823Z,20.500000
2022-08-05T03:50:27.110Z,20.570000
2022-08-05T03:56:04.394Z,20.700000
2022-08-05T04:00:22.970Z,20.853846
2022-08-05T04:05:24.006Z,20.971429
2022-08-05T04:10:22.994Z,21.145455
2022-08-05T04:15:24.527Z,21.325000
2022-08-05T04:20:23.143Z,21.550000
2022-08-05T04:25:56.428Z,21.762500
2022-08-05T04:30:29.496Z,21.945455
2022-08-05T04:35:23.178Z,22.080000
2022-08-05T04:40:23.092Z,22.300000
2022-08-05T04:45:47.867Z,22.475000
2022-08-05T04:50:37.133Z,22.636364
2022-08-05T04:55:39.821Z,22.760000
2022-08-05T05:00:23.207Z,22.958333
2022-08-05T05:05:28.476Z,23.114286
2022-08-05T05:10:23.734Z,23.300000
2022-08-05T05:15:57.545Z,23.525000
2022-08-05T05:20:22.971Z,23.745455
2022-08-05T05:25:32.586Z,23.988889
2022-08-05T05:30:30.866Z,24.130000
2022-08-05T05:35:23.086Z,24.300000
2022-08-05T05:40:23.294Z,24.422222
2022-08-05T05:45:23.346Z,24.590000
2022-08-05T05:50:23.071Z,24.783333
2022-08-05T05:55:21.248Z,24.966667
2022-08-05T06:00:31.496Z,25.036364
2022-08-05T06:05:23.265Z,25.070000
2022-08-05T06:10:36.321Z,25.010000
2022-08-05T06:15:24.116Z,25.100000
2022-08-05T06:20:24.440Z,25.163636
2022-08-05T06:25:25.269Z,25.200000
2022-08-05T06:30:22.944Z,25.300000
2022-08-05T06:36:03.173Z,25.450000
2022-08-05T06:40:27.967Z,25.608333
2022-08-05T06:46:03.058Z,25.810000
2022-08-05T06:50:18.865Z,25.927273
2022-08-05T06:55:23.693Z,26.062500
2022-08-05T07:00:25.442Z,26.100000
2022-08-05T07:05:27.658Z,26.183333
2022-08-05T07:10:19.284Z,26.100000
2022-08-05T07:15:34.591Z,26.163636
2022-08-05T07:20:36.303Z,26.354545
2022-08-05T07:25:56.067Z,26.612500
2022-08-05T07:30:23.806Z,26.800000
2022-08-05T07:36:04.849Z,26.944444
2022-08-05T07:40:26.810Z,27.175000
2022-08-05T07:45:56.526Z,27.309091
2022-08-05T07:50:28.854Z,27.200000
2022-08-05T07:56:05.347Z,27.100000
2022-08-05T08:00:23.193Z,27.200000
2022-08-05T08:05:23.145Z,27.440000
2022-08-05T08:10:20.907Z,27.540000
2022-08-05T08:16:33.257Z,27.637500
2022-08-05T08:16:35.143Z,27.637500
2022-08-05T08:20:43.915Z,27.854545
2022-08-05T08:25:26.965Z,27.880000
2022-08-05T08:30:32.655Z,27.540000
2022-08-05T08:35:26.626Z,27.300000
2022-08-05T08:40:23.117Z,27.436364
2022-08-05T08:45:26.993Z,27.300000
2022-08-05T08:50:52.060Z,27.244444
2022-08-05T08:55:31.869Z,27.240000
2022-08-05T09:00:23.275Z,27.540000
2022-08-05T09:05:38.395Z,27.711111
2022-08-05T09:10:26.991Z,27.985714
2022-08-05T09:15:25.215Z,28.050000
2022-08-05T09:20:37.267Z,28.090000
2022-08-05T09:25:24.551Z,27.918182
2022-08-05T09:30:24.013Z,27.763636
2022-08-05T09:35:26.461Z,27.600000
2022-08-05T09:40:28.920Z,27.190909
2022-08-05T09:46:06.253Z,26.690000
2022-08-05T09:50:38.849Z,26.287500
2022-08-05T09:55:57.297Z,25.911111
2022-08-05T10:00:23.210Z,25.590000
2022-08-05T10:05:23.244Z,25.500000
2022-08-05T10:10:28.103Z,25.620000
2022-08-05T10:15:23.210Z,25.700000
2022-08-05T10:20:23.157Z,25.666667
2022-08-05T10:25:23.201Z,25.455556
2022-08-05T10:31:20.448Z,25.325000
2022-08-05T10:32:53.761Z,25.325000
2022-08-05T10:32:55.079Z,25.325000
2022-08-05T10:35:33.798Z,25.472727
2022-08-05T10:40:28.386Z,25.755556
2022-08-05T10:45:40.351Z,25.760000
2022-08-05T10:50:35.440Z,25.500000
2022-08-05T10:55:23.230Z,25.177778
2022-08-05T11:00:23.790Z,25.000000
2022-08-05T11:05:27.436Z,25.000000
2022-08-05T11:10:27.712Z,25.150000
2022-08-05T11:15:59.016Z,25.250000
2022-08-05T11:20:19.692Z,25.280000
2022-08-05T11:26:04.616Z,25.241667
2022-08-05T11:30:25.894Z,25.233333
2022-08-05T11:35:23.243Z,25.266667
2022-08-05T11:40:19.885Z,25.277778
2022-08-05T11:46:27.345Z,25.118182
2022-08-05T11:46:33.334Z,25.118182
2022-08-05T11:50:26.234Z,24.981818
2022-08-05T11:55:32.110Z,24.733333
2022-08-05T12:00:23.338Z,24.700000
2022-08-05T12:05:26.027Z,24.830000
2022-08-05T12:10:42.867Z,25.091667
2022-08-05T12:15:33.934Z,25.300000
2022-08-05T12:20:28.693Z,25.320000
2022-08-05T12:25:28.216Z,25.325000
2022-08-05T12:30:23.241Z,25.272727
2022-08-05T12:35:23.474Z,25.145455
2022-08-05T12:40:26.817Z,25.175000
2022-08-05T12:45:36.864Z,25.137500
2022-08-05T12:50:23.395Z,25.016667
2022-08-05T12:55:25.698Z,25.000000
2022-08-05T13:02:01.594Z,25.040000
2022-08-05T13:02:03.287Z,25.040000
2022-08-05T13:05:24.912Z,25.190000
2022-08-05T13:10:28.835Z,25.200000
2022-08-05T13:15:24.327Z,25.200000
2022-08-05T13:20:25.295Z,25.109091
2022-08-05T13:25:51.630Z,25.100000
2022-08-05T13:30:35.220Z,25.063636
2022-08-05T13:35:26.248Z,25.000000
2022-08-05T13:40:36.634Z,24.950000
2022-08-05T13:45:33.972Z,24.900000
2022-08-05T13:50:24.113Z,24.900000
2022-08-05T13:55:41.652Z,24.944444
2022-08-05T14:00:27.225Z,25.000000
2022-08-05T14:05:48.304Z,25.088889
2022-08-05T14:10:28.567Z,24.990000
2022-08-05T14:16:08.273Z,24.900000
2022-08-05T14:20:27.208Z,24.900000
2022-08-05T14:25:28.069Z,24.854545
2022-08-05T14:30:23.478Z,24.800000
2022-08-05T14:35:22.870Z,24.780000
2022-08-05T14:40:24.292Z,24.800000
2022-08-05T14:45:23.593Z,24.811111
2022-08-05T14:50:25.346Z,24.709091
2022-08-05T14:55:23.432Z,24.671429
2022-08-05T15:00:28.115Z,24.790000
2022-08-05T15:05:30.003Z,24.800000
2022-08-05T15:10:28.893Z,24.690909
2022-08-05T15:15:55.018Z,24.600000
2022-08-05T15:20:25.069Z,24.600000
2022-08-05T15:25:53.005Z,24.600000
2022-08-05T15:30:19.125Z,24.581818
2022-08-05T15:35:23.457Z,24.500000
2022-08-05T15:40:59.733Z,24.450000
2022-08-05T15:45:38.505Z,24.400000
2022-08-05T15:50:19.441Z,24.400000
2022-08-05T15:55:24.460Z,24.311111
2022-08-05T16:00:32.692Z,24.400000
2022-08-05T16:05:28.886Z,24.400000
2022-08-05T16:10:25.288Z,24.470000
2022-08-05T16:15:23.524Z,24.450000
2022-08-05T16:20:27.835Z,24.390000
2022-08-05T16:25:23.661Z,24.300000
2022-08-05T16:30:26.646Z,24.271429
2022-08-05T16:35:27.718Z,24.200000
2022-08-05T16:40:29.414Z,24.200000
2022-08-05T17:00:34.851Z,24.022222
2022-08-05T17:05:30.503Z,24.000000
2022-08-05T17:10:26.473Z,23.891667
2022-08-05T17:15:24.641Z,23.757143
2022-08-05T17:20:23.515Z,23.616667
2022-08-05T17:25:22.552Z,23.500000
2022-08-05T17:30:28.305Z,23.500000
2022-08-05T17:35:25.408Z,23.466667
2022-08-05T17:40:23.697Z,23.400000
2022-08-05T17:45:20.694Z,23.300000
2022-08-05T17:50:28.910Z,23.212500
2022-08-05T17:55:34.355Z,23.100000
2022-08-05T18:00:28.571Z,22.963636
2022-08-05T18:05:19.923Z,22.800000
2022-08-05T18:10:23.497Z,22.633333
2022-08-05T18:15:26.157Z,22.600000
2022-08-05T18:20:29.437Z,22.600000
2022-08-05T18:25:25.733Z,22.475000
2022-08-05T18:30:23.898Z,22.375000
2022-08-05T18:35:49.308Z,22.400000
2022-08-05T18:40:30.126Z,22.400000
2022-08-05T18:41:56.227Z,22.400000
2022-08-05T18:45:23.543Z,22.300000
2022-08-05T18:50:44.879Z,22.200000
2022-08-05T18:55:23.493Z,22.136364
2022-08-05T19:00:28.625Z,22.100000
2022-08-05T19:06:12.348Z,22.100000
2022-08-05T19:10:28.252Z,22.100000
2022-08-05T19:15:56.743Z,22.100000
2022-08-05T19:20:18.933Z,22.172727
2022-08-05T19:25:29.722Z,22.200000
2022-08-05T19:30:27.478Z,22.120000
2022-08-05T19:35:23.495Z,22.009091
2022-08-05T19:40:19.309Z,21.910000
2022-08-05T19:45:23.509Z,21.962500
2022-08-05T19:50:27.063Z,22.118182
2022-08-05T19:56:15.439Z,22.070000
2022-08-05T19:56:32.588Z,22.070000
2022-08-05T20:00:20.698Z,21.870000
2022-08-05T20:05:24.708Z,21.725000
2022-08-05T20:10:26.522Z,21.590000
2022-08-05T20:15:52.018Z,21.500000
2022-08-05T20:20:21.029Z,21.500000
2022-08-05T20:25:24.291Z,21.470000
2022-08-05T20:30:23.494Z,21.276923
2022-08-05T20:35:31.564Z,21.144444
2022-08-05T20:40:23.583Z,21.100000
2022-08-05T20:45:56.740Z,21.044444
2022-08-05T20:50:27.819Z,20.891667
2022-08-05T20:55:56.891Z,20.720000
2022-08-05T21:00:49.796Z,20.577778
2022-08-05T21:05:24.513Z,20.500000
2022-08-05T21:10:23.471Z,20.445455
2022-08-05T21:15:23.528Z,20.400000
2022-08-05T21:20:33.517Z,20.500000
2022-08-05T21:25:25.203Z,20.600000
2022-08-05T21:30:23.911Z,20.583333
2022-08-05T21:35:29.463Z,20.500000
2022-08-05T21:40:23.474Z,20.500000
2022-08-05T21:45:38.170Z,20.500000
2022-08-05T21:50:23.544Z,20.425000
2022-08-05T21:56:01.362Z,20.436364
2022-08-05T22:00:23.139Z,20.480000
2022-08-05T22:05:27.489Z,20.357143
2022-08-05T22:10:29.353Z,20.216667
2022-08-05T22:16:00.815Z,20.200000
2022-08-05T22:20:23.595Z,20.200000
2022-08-05T22:25:27.798Z,20.166667
2022-08-05T22:30:23.451Z,20.028571
2022-08-05T22:35:20.834Z,19.825000
2022-08-05T22:40:36.102Z,19.650000
2022-08-05T22:45:23.827Z,19.600000
2022-08-05T22:50:27.688Z,19.600000
2022-08-05T22:55:21.723Z,19.490000
2022-08-05T23:00:24.298Z,19.340000
2022-08-05T23:05:23.888Z,19.270000
2022-08-05T23:10:24.423Z,19.200000
2022-08-05T23:15:21.666Z,19.100000
2022-08-05T23:20:25.192Z,19.245455
2022-08-05T23:25:51.180Z,19.488889
2022-08-05T23:30:19.098Z,19.450000
2022-08-05T23:35:24.405Z,19.236364
2022-08-05T23:40:27.126Z,19.222222
2022-08-05T23:45:28.637Z,19.300000
2022-08-05T23:50:20.346Z,19.300000
2022-08-05T23:55:24.627Z,19.225000
